Time;durP1;ratioP1;P1;durP2;ratioP2;P2;SDS_P1;SDS_P2;PMS_P1;PMS_P2;Temp;Humidity;BMP_temperature;BMP_pressure;BME280_temperature;BME280_humidity;BME280_pressure;Samples;Min_cycle;Max_cycle;Signal;HPM_P1;HPM_P2
2021/09/03 00:00:29;;;;;;;6.77;5.13;;;;;;;20.79;58.16;102297.34;5034712;28;20052;-63
2021/09/03 00:02:55;;;;;;;7.38;4.95;;;;;;;20.79;58.39;102297.34;5033668;28;20262;-64
2021/09/03 00:05:21;;;;;;;6.57;4.53;;;;;;;20.83;58.17;102297.97;5034445;28;20087;-63
2021/09/03 00:07:47;;;;;;;8.35;4.90;;;;;;;20.81;58.14;102289.28;5034449;28;20017;-63
2021/09/03 00:10:15;;;;;;;6.72;4.60;;;;;;;20.79;58.23;102286.75;5033705;28;20037;-62
2021/09/03 00:12:44;;;;;;;7.97;4.47;;;;;;;20.81;58.01;102291.94;5034230;28;20025;-64
2021/09/03 00:15:12;;;;;;;7.25;4.40;;;;;;;20.81;58.09;102294.59;5033303;28;20100;-63
2021/09/03 00:17:38;;;;;;;7.72;5.00;;;;;;;20.78;58.03;102289.50;5033117;28;20040;-62
2021/09/03 00:20:06;;;;;;;7.63;4.80;;;;;;;20.79;58.15;102281.44;5033846;28;20052;-63
2021/09/03 00:22:31;;;;;;;6.30;4.05;;;;;;;20.79;58.19;102289.38;5033336;28;20056;-63
2021/09/03 00:24:56;;;;;;;6.88;4.60;;;;;;;20.79;58.40;102288.53;5033836;28;20056;-63
2021/09/03 00:27:28;;;;;;;7.63;4.80;;;;;;;20.79;58.08;102281.44;5034113;28;20025;-63
2021/09/03 00:29:53;;;;;;;8.35;4.90;;;;;;;20.79;58.08;102280.56;5032913;28;20076;-62
2021/09/03 00:32:18;;;;;;;6.70;4.40;;;;;;;20.78;58.19;102285.03;5034197;28;20033;-62
2021/09/03 00:34:43;;;;;;;6.45;4.60;;;;;;;20.78;58.01;102281.53;5033797;28;20029;-62
2021/09/03 00:37:09;;;;;;;6.73;4.63;;;;;;;20.78;58.06;102273.59;5032058;28;20026;-64
2021/09/03 00:39:34;;;;;;;7.55;5.10;;;;;;;20.77;57.90;102272.72;5033950;28;20281;-63
2021/09/03 00:42:07;;;;;;;6.50;4.72;;;;;;;20.77;58.03;102266.59;5033594;28;20029;-63
2021/09/03 00:44:32;;;;;;;7.13;4.85;;;;;;;20.77;57.95;102271.88;5033324;28;20224;-63
2021/09/03 00:46:58;;;;;;;7.30;4.60;;;;;;;20.76;58.13;102263.09;5033468;28;20116;-64
2021/09/03 00:49:23;;;;;;;6.68;5.00;;;;;;;20.77;58.09;102258.66;5033459;28;20290;-63
2021/09/03 00:51:48;;;;;;;7.20;4.67;;;;;;;20.76;58.08;102263.09;5032518;28;20025;-63
2021/09/03 00:54:13;;;;;;;7.22;4.90;;;;;;;20.74;57.92;102257.03;5033288;28;20293;-63
2021/09/03 00:56:39;;;;;;;7.23;5.10;;;;;;;20.74;58.00;102250.91;5033529;28;20018;-63
2021/09/03 00:59:04;;;;;;;7.60;5.30;;;;;;;20.74;58.06;102249.09;5032482;28;20282;-62
2021/09/03 01:01:30;;;;;;;7.22;4.80;;;;;;;20.73;57.87;102249.22;5033289;28;20668;-63
2021/09/03 01:03:55;;;;;;;7.40;5.17;;;;;;;20.73;57.89;102247.44;5032882;28;20037;-63
2021/09/03 01:06:20;;;;;;;7.43;4.80;;;;;;;20.73;57.96;102246.56;5032742;28;20022;-63
2021/09/03 01:08:46;;;;;;;5.88;4.45;;;;;;;20.73;58.27;102247.44;5033418;28;20462;-63
2021/09/03 01:11:14;;;;;;;6.40;4.45;;;;;;;20.73;57.90;102246.56;5032436;28;20022;-63
2021/09/03 01:13:40;;;;;;;6.22;4.40;;;;;;;20.73;57.78;102241.25;5033178;28;20025;-64
2021/09/03 01:16:05;;;;;;;8.30;4.85;;;;;;;20.73;57.88;102243.91;5032908;28;20029;-63
2021/09/03 01:18:39;;;;;;;7.07;4.40;;;;;;;20.72;57.91;102235.13;5032320;28;20037;-63
2021/09/03 01:21:04;;;;;;;7.97;5.07;;;;;;;20.72;57.99;102234.28;5032981;28;20056;-64
2021/09/03 01:23:30;;;;;;;7.65;4.57;;;;;;;20.71;57.83;102230.81;5033042;28;20055;-62
2021/09/03 01:25:55;;;;;;;8.20;4.68;;;;;;;20.70;57.71;102234.41;5032119;28;20516;-64
2021/09/03 01:28:20;;;;;;;6.72;4.35;;;;;;;20.69;58.00;102235.34;5032991;28;20436;-63
2021/09/03 01:30:46;;;;;;;6.88;4.50;;;;;;;20.71;57.77;102230.81;5032776;28;20021;-63
2021/09/03 01:33:11;;;;;;;7.97;5.20;;;;;;;20.71;58.00;102224.63;5031834;28;20017;-63
2021/09/03 01:35:36;;;;;;;7.20;4.63;;;;;;;20.68;57.99;102223.06;5032678;28;20037;-62
2021/09/03 01:38:05;;;;;;;7.00;4.63;;;;;;;20.70;57.71;102226.44;5032701;28;20279;-63
2021/09/03 01:40:34;;;;;;;7.43;5.05;;;;;;;20.69;57.89;102222.09;5032086;28;20032;-62
2021/09/03 01:43:03;;;;;;;8.23;4.82;;;;;;;20.70;57.76;102220.31;5032377;28;20041;-63
2021/09/03 01:45:28;;;;;;;7.53;5.00;;;;;;;20.69;57.69;102215.97;5032602;28;20029;-63
2021/09/03 01:47:54;;;;;;;6.35;4.25;;;;;;;20.69;57.73;102221.25;5031443;28;20080;-63
2021/09/03 01:50:19;;;;;;;6.88;4.57;;;;;;;20.68;57.84;102212.47;5032531;28;20500;-64
2021/09/03 01:52:44;;;;;;;8.40;4.80;;;;;;;20.68;57.81;102206.31;5032148;28;20033;-63
2021/09/03 01:55:10;;;;;;;6.55;4.68;;;;;;;20.68;57.70;102211.59;5031716;28;20029;-62
2021/09/03 01:57:35;;;;;;;6.93;4.60;;;;;;;20.67;57.73;102205.47;5032531;28;20032;-63
2021/09/03 02:00:00;;;;;;;6.67;4.60;;;;;;;20.68;57.92;102201.88;5031960;28;20075;-63
2021/09/03 02:02:26;;;;;;;7.47;4.63;;;;;;;20.67;57.66;102205.47;5031503;28;20285;-63
2021/09/03 02:04:51;;;;;;;6.85;5.10;;;;;;;20.58;57.50;102188.38;5032105;28;20022;-63
2021/09/03 02:07:17;;;;;;;8.00;4.50;;;;;;;20.67;57.73;102202.81;5032089;28;20032;-63
2021/09/03 02:09:42;;;;;;;8.20;4.80;;;;;;;20.65;57.63;102202.94;5031526;28;20377;-63
2021/09/03 02:12:12;;;;;;;5.77;4.33;;;;;;;20.65;57.57;102202.94;5031993;28;20032;-63
2021/09/03 02:14:37;;;;;;;6.80;4.95;;;;;;;20.65;57.81;102202.94;5031433;28;20638;-64
2021/09/03 02:17:03;;;;;;;8.55;5.00;;;;;;;20.65;57.49;102205.56;5031861;28;20021;-63
2021/09/03 02:19:28;;;;;;;7.68;4.57;;;;;;;20.64;57.77;102193.28;5032322;28;20030;-64
2021/09/03 02:21:53;;;;;;;8.15;4.70;;;;;;;20.65;57.55;102202.09;5031329;28;20543;-63
2021/09/03 02:24:18;;;;;;;7.13;4.77;;;;;;;20.61;57.53;102198.75;5032398;28;20032;-63
2021/09/03 02:26:44;;;;;;;7.90;5.10;;;;;;;20.63;57.05;102194.22;5031967;28;20275;-64
2021/09/03 02:29:09;;;;;;;6.57;4.67;;;;;;;20.64;57.55;102195.09;5031149;28;20347;-63
2021/09/03 02:31:34;;;;;;;7.30;4.70;;;;;;;20.62;57.60;102186.38;5031959;28;20298;-63
2021/09/03 02:33:59;;;;;;;6.73;4.40;;;;;;;20.60;57.41;102178.53;5031914;28;20028;-62
2021/09/03 02:36:25;;;;;;;6.93;4.85;;;;;;;20.62;57.53;102189.88;5031668;28;20116;-63
2021/09/03 02:38:50;;;;;;;7.07;4.50;;;;;;;20.62;57.52;102195.16;5031709;28;20028;-62
2021/09/03 02:41:15;;;;;;;6.65;4.50;;;;;;;20.61;57.44;102180.22;5032073;28;20045;-64
2021/09/03 02:43:43;;;;;;;6.83;4.60;;;;;;;20.60;57.30;102178.53;5031251;28;20366;-64
2021/09/03 02:46:08;;;;;;;7.45;4.72;;;;;;;20.59;57.53;102179.50;5031714;28;20269;-62
2021/09/03 02:48:34;;;;;;;7.47;4.82;;;;;;;20.60;57.45;102175.03;5032190;28;20029;-63
2021/09/03 02:50:59;;;;;;;6.82;4.68;;;;;;;20.61;57.48;102168.78;5031089;28;20469;-63
2021/09/03 02:53:24;;;;;;;7.37;4.80;;;;;;;20.60;57.46;102164.44;5032111;28;20128;-64
2021/09/03 02:55:49;;;;;;;7.45;4.60;;;;;;;20.61;57.46;102169.63;5031824;28;20302;-63
2021/09/03 02:58:15;;;;;;;6.90;4.60;;;;;;;20.60;57.38;102162.66;5031132;28;20030;-63
2021/09/03 03:00:43;;;;;;;7.18;4.75;;;;;;;20.60;57.31;102165.31;5035130;28;20262;-63
2021/09/03 03:03:08;;;;;;;6.80;4.80;;;;;;;20.59;57.26;102162.75;5035540;28;20049;-63
2021/09/03 03:05:34;;;;;;;6.93;4.70;;;;;;;20.59;57.35;102165.41;5035091;28;20102;-63
2021/09/03 03:07:59;;;;;;;5.80;4.22;;;;;;;20.57;57.33;102156.69;5035423;28;20071;-63
2021/09/03 03:10:25;;;;;;;7.43;4.82;;;;;;;20.57;57.15;102154.94;5035323;28;20366;-63
2021/09/03 03:12:54;;;;;;;7.57;4.80;;;;;;;20.59;57.14;102152.16;5034533;28;20030;-63
2021/09/03 03:15:21;;;;;;;7.63;4.25;;;;;;;20.58;57.41;102151.31;5035311;28;20036;-63
2021/09/03 03:17:46;;;;;;;7.63;4.68;;;;;;;20.58;57.36;102142.53;5034568;28;20434;-63
2021/09/03 03:20:12;;;;;;;6.78;4.70;;;;;;;20.58;57.22;102147.81;5035182;28;20033;-63
2021/09/03 03:22:40;;;;;;;6.60;4.78;;;;;;;20.57;57.03;102138.16;5035325;28;20024;-63
2021/09/03 03:25:06;;;;;;;6.85;4.55;;;;;;;20.57;57.25;102139.03;5034055;28;20450;-62
2021/09/03 03:27:31;;;;;;;6.38;4.32;;;;;;;20.56;57.42;102134.69;5035003;28;20095;-63
2021/09/03 03:29:56;;;;;;;8.38;4.88;;;;;;;20.56;57.20;102136.50;5034931;28;20127;-63
2021/09/03 03:32:21;;;;;;;7.57;4.20;;;;;;;20.55;57.07;102138.28;5034546;28;20045;-62
2021/09/03 03:34:47;;;;;;;6.70;4.50;;;;;;;20.56;57.24;102136.50;5035138;28;20279;-63
2021/09/03 03:37:12;;;;;;;8.68;5.07;;;;;;;20.56;57.13;102139.16;5034967;28;20022;-64
2021/09/03 03:39:37;;;;;;;7.63;5.10;;;;;;;20.54;57.13;102133.94;5034451;28;20037;-63
2021/09/03 03:42:03;;;;;;;7.57;4.70;;;;;;;20.54;57.16;102130.47;5034477;28;20108;-62
2021/09/03 03:44:28;;;;;;;7.45;4.90;;;;;;;20.54;57.23;102130.47;5033468;28;20270;-62
2021/09/03 03:46:53;;;;;;;6.70;4.72;;;;;;;20.55;57.04;102129.50;5033959;28;20029;-63
2021/09/03 03:49:19;;;;;;;7.87;4.77;;;;;;;20.54;57.00;102126.00;5034781;28;20037;-63
2021/09/03 03:51:44;;;;;;;9.23;4.73;;;;;;;20.55;56.71;102126.84;5034588;28;20267;-63
2021/09/03 03:54:09;;;;;;;6.80;4.70;;;;;;;20.51;57.05;102126.22;5033408;28;20344;-64
2021/09/03 03:56:35;;;;;;;8.02;5.05;;;;;;;20.53;57.12;102119.00;5034574;28;20021;-62
2021/09/03 03:59:00;;;;;;;8.35;4.90;;;;;;;20.52;57.04;102127.94;5033998;28;20034;-63
2021/09/03 04:01:25;;;;;;;8.20;4.60;;;;;;;20.53;57.13;102131.41;5034310;28;20041;-63
2021/09/03 04:03:51;;;;;;;7.35;4.57;;;;;;;20.52;57.10;102125.28;5034402;28;20401;-62
2021/09/03 04:06:16;;;;;;;7.90;5.45;;;;;;;20.52;57.03;102119.97;5034445;28;20103;-63
2021/09/03 04:08:41;;;;;;;6.28;4.55;;;;;;;20.48;57.10;102114.03;5033752;28;20156;-63
2021/09/03 04:11:07;;;;;;;7.80;5.18;;;;;;;20.51;57.03;102110.34;5032889;28;20029;-63
2021/09/03 04:13:32;;;;;;;8.20;4.93;;;;;;;20.51;57.01;102114.78;5034158;28;20381;-63
2021/09/03 04:15:58;;;;;;;8.25;4.82;;;;;;;20.49;56.95;102114.91;5033511;28;20075;-63
2021/09/03 04:18:23;;;;;;;8.02;4.80;;;;;;;20.50;57.05;102113.09;5034284;28;20493;-63
2021/09/03 04:20:48;;;;;;;6.68;4.50;;;;;;;20.50;57.15;102119.22;5033815;28;20489;-64
2021/09/03 04:23:13;;;;;;;7.72;4.70;;;;;;;20.50;56.93;102115.75;5033529;28;20104;-63
2021/09/03 04:25:39;;;;;;;7.07;4.45;;;;;;;20.48;56.95;102107.91;5033978;28;20470;-63
2021/09/03 04:28:05;;;;;;;7.38;4.78;;;;;;;20.46;56.94;102105.38;5033307;28;20017;-63
2021/09/03 04:30:30;;;;;;;6.55;4.45;;;;;;;20.49;56.94;102109.63;5033872;28;20037;-63
2021/09/03 04:32:55;;;;;;;7.47;4.90;;;;;;;20.48;56.99;102113.19;5033848;28;20028;-63
2021/09/03 04:35:20;;;;;;;7.30;4.50;;;;;;;20.47;56.85;102112.38;5033225;28;20076;-63
2021/09/03 04:37:47;;;;;;;7.68;5.18;;;;;;;20.48;57.07;102115.84;5033859;28;20271;-63
2021/09/03 04:40:14;;;;;;;6.63;4.68;;;;;;;20.46;56.93;102115.97;5033861;28;20017;-63
2021/09/03 04:42:40;;;;;;;7.47;4.82;;;;;;;20.48;56.78;102119.34;5032922;28;20100;-62
2021/09/03 04:45:06;;;;;;;7.78;4.70;;;;;;;20.46;56.65;102112.47;5033338;28;20556;-62
2021/09/03 04:47:32;;;;;;;6.47;4.57;;;;;;;20.48;56.93;102115.84;5033641;28;20045;-63
2021/09/03 04:49:58;;;;;;;6.90;4.60;;;;;;;20.45;56.83;102116.91;5032606;28;20044;-63
2021/09/03 04:52:23;;;;;;;6.93;4.60;;;;;;;20.45;56.74;102111.59;5033718;28;20026;-63
2021/09/03 04:54:48;;;;;;;7.30;4.43;;;;;;;20.47;56.91;102116.78;5031687;28;20725;-63
2021/09/03 04:57:13;;;;;;;6.87;4.80;;;;;;;20.46;56.93;102118.59;5032699;28;20037;-62
2021/09/03 04:59:39;;;;;;;6.68;4.63;;;;;;;20.45;56.78;102110.78;5033467;28;20276;-63
2021/09/03 05:02:04;;;;;;;7.55;5.00;;;;;;;20.46;56.80;102115.13;5033082;28;20025;-63
2021/09/03 05:04:29;;;;;;;6.65;4.75;;;;;;;20.45;56.85;102105.47;5032696;28;20025;-64
2021/09/03 05:06:55;;;;;;;6.95;4.65;;;;;;;20.45;56.68;102105.47;5033117;28;20060;-63
2021/09/03 05:09:20;;;;;;;7.53;4.90;;;;;;;20.42;56.84;102100.41;5033075;28;20469;-63
2021/09/03 05:11:45;;;;;;;8.43;4.93;;;;;;;20.41;56.83;102099.56;5032484;28;20037;-62
2021/09/03 05:14:10;;;;;;;7.05;4.95;;;;;;;20.45;56.77;102103.66;5032920;28;20279;-63
2021/09/03 05:16:36;;;;;;;8.38;5.00;;;;;;;20.44;56.74;102103.78;5033444;28;20104;-63
2021/09/03 05:19:01;;;;;;;6.40;4.50;;;;;;;20.43;56.86;102102.09;5032412;28;20049;-63
2021/09/03 05:21:26;;;;;;;7.40;4.85;;;;;;;20.44;56.67;102109.06;5032914;28;20267;-62
2021/09/03 05:23:51;;;;;;;7.10;5.03;;;;;;;20.35;56.42;102096.50;5032671;28;20429;-63
2021/09/03 05:26:17;;;;;;;8.27;4.93;;;;;;;20.42;56.69;102105.69;5032247;28;20289;-63
2021/09/03 05:28:42;;;;;;;8.07;5.13;;;;;;;20.41;56.67;102102.22;5033213;28;20033;-63
2021/09/03 05:31:07;;;;;;;7.32;4.85;;;;;;;20.41;56.70;102101.34;5032349;28;20478;-63
2021/09/03 05:33:32;;;;;;;7.33;4.77;;;;;;;20.43;56.61;102110.03;5032168;28;20071;-64
2021/09/03 05:35:58;;;;;;;6.15;4.05;;;;;;;20.41;56.70;102112.81;5032575;28;20277;-62
2021/09/03 05:38:23;;;;;;;7.28;4.60;;;;;;;20.40;56.80;102118.19;5032684;28;20049;-62
2021/09/03 05:40:49;;;;;;;7.50;4.63;;;;;;;20.38;57.03;102120.13;5031647;28;20033;-63
2021/09/03 05:43:20;;;;;;;7.50;4.40;;;;;;;20.34;56.95;102113.34;5032704;28;20025;-62
2021/09/03 05:45:45;;;;;;;6.85;4.43;;;;;;;20.37;57.03;102121.91;5031963;28;20034;-63
2021/09/03 05:48:10;;;;;;;6.97;4.43;;;;;;;20.38;57.06;102118.31;5032303;28;20033;-64
2021/09/03 05:50:35;;;;;;;7.70;4.70;;;;;;;20.39;56.99;102116.50;5032493;28;20029;-64
2021/09/03 05:53:09;;;;;;;7.37;4.53;;;;;;;20.39;57.15;102122.63;5031058;28;20642;-63
2021/09/03 05:55:35;;;;;;;7.60;4.75;;;;;;;20.41;57.28;102122.53;5032295;28;20682;-62
2021/09/03 05:58:00;;;;;;;9.10;4.95;;;;;;;20.39;57.13;102127.94;5031860;28;20028;-62
2021/09/03 06:00:26;;;;;;;8.52;4.63;;;;;;;20.40;57.15;102113.75;5031633;28;20029;-61
2021/09/03 06:02:51;;;;;;;8.07;4.68;;;;;;;20.43;57.07;102125.94;5032035;28;20022;-64
2021/09/03 06:05:17;;;;;;;6.90;4.32;;;;;;;20.43;57.30;102126.75;5032352;28;20025;-61
2021/09/03 06:07:43;;;;;;;6.80;4.45;;;;;;;20.43;57.17;102118.81;5031691;28;20022;-64
2021/09/03 06:10:10;;;;;;;7.45;4.53;;;;;;;20.44;57.46;102119.66;5031849;28;20036;-63
2021/09/03 06:12:36;;;;;;;7.25;4.72;;;;;;;20.44;57.67;102111.72;5032022;28;20025;-65
2021/09/03 06:15:02;;;;;;;7.03;4.43;;;;;;;20.48;57.62;102121.97;5031028;28;20057;-63
2021/09/03 06:17:27;;;;;;;10.45;4.38;;;;;;;20.49;57.67;102117.56;5032333;28;20342;-63
2021/09/03 06:19:52;;;;;;;10.05;4.57;;;;;;;20.51;57.72;102120.09;5032048;28;20472;-63
2021/09/03 06:22:18;;;;;;;7.53;4.60;;;;;;;20.49;57.50;102117.56;5031359;28;20025;-62
2021/09/03 06:24:43;;;;;;;7.53;4.75;;;;;;;20.51;57.66;102115.63;5032028;28;20270;-62
2021/09/03 06:27:10;;;;;;;6.75;4.22;;;;;;;20.52;57.73;102116.47;5031895;28;20499;-62
2021/09/03 06:29:43;;;;;;;7.57;4.65;;;;;;;20.53;57.61;102124.31;5031030;28;20025;-64
2021/09/03 06:32:17;;;;;;;8.02;4.90;;;;;;;20.53;57.79;102119.00;5031778;28;20032;-62
2021/09/03 06:34:47;;;;;;;7.47;4.20;;;;;;;20.54;57.80;102123.34;5033508;28;20112;-64
2021/09/03 06:37:14;;;;;;;9.65;4.55;;;;;;;20.52;57.74;102114.69;5036150;28;20060;-64
2021/09/03 06:39:39;;;;;;;8.48;4.85;;;;;;;20.57;58.20;102127.56;5036305;28;20030;-64
2021/09/03 06:42:07;;;;;;;7.15;4.50;;;;;;;20.57;57.96;102122.28;5034916;28;20036;-63
2021/09/03 06:44:33;;;;;;;6.75;4.63;;;;;;;20.58;57.90;102123.97;5036048;28;20029;-63
2021/09/03 06:46:59;;;;;;;7.90;4.07;;;;;;;20.59;57.83;102118.56;5035666;28;20211;-64
2021/09/03 06:49:25;;;;;;;8.23;4.68;;;;;;;20.58;58.15;102116.03;5035349;28;20109;-63
2021/09/03 06:51:51;;;;;;;11.13;4.85;;;;;;;20.57;57.88;102117.84;5035412;28;20436;-62
2021/09/03 06:54:16;;;;;;;7.25;4.57;;;;;;;20.62;57.89;102128.13;5035669;28;20041;-63
2021/09/03 06:56:42;;;;;;;9.43;5.07;;;;;;;20.61;57.80;102123.75;5035103;28;20029;-62
2021/09/03 06:59:07;;;;;;;13.48;5.00;;;;;;;20.62;57.70;102128.13;5035543;28;20163;-63
2021/09/03 07:01:33;;;;;;;7.30;4.25;;;;;;;20.61;57.79;102129.91;5035864;28;20049;-64
2021/09/03 07:03:58;;;;;;;7.18;4.38;;;;;;;20.62;57.52;102126.31;5034760;28;20037;-62
2021/09/03 07:06:23;;;;;;;7.85;4.60;;;;;;;20.64;57.79;102124.41;5035619;28;20040;-63
2021/09/03 07:08:49;;;;;;;8.38;4.40;;;;;;;20.62;57.85;102123.66;5036216;28;20025;-66
2021/09/03 07:11:15;;;;;;;7.60;4.60;;;;;;;20.64;57.72;102135.00;5034770;28;20079;-61
2021/09/03 07:13:40;;;;;;;8.02;4.90;;;;;;;20.65;57.98;102134.06;5036240;28;20025;-63
2021/09/03 07:16:05;;;;;;;7.97;4.85;;;;;;;20.70;58.07;102127.59;5036022;28;20033;-64
2021/09/03 07:18:31;;;;;;;8.05;4.88;;;;;;;20.72;58.05;102131.81;5034727;28;20112;-62
2021/09/03 07:20:56;;;;;;;6.93;4.35;;;;;;;20.71;58.21;102123.97;5035220;28;20075;-62
2021/09/03 07:23:22;;;;;;;7.93;5.03;;;;;;;20.74;57.97;102126.41;5035321;28;20025;-63
2021/09/03 07:25:50;;;;;;;8.18;4.88;;;;;;;20.74;57.95;102118.44;5035291;28;20025;-62
2021/09/03 07:28:19;;;;;;;7.45;4.32;;;;;;;20.78;57.85;102112.81;5036571;28;20436;-63
2021/09/03 07:30:44;;;;;;;7.90;4.90;;;;;;;20.80;57.92;102120.66;5036118;28;20057;-61
2021/09/03 07:33:09;;;;;;;9.93;4.75;;;;;;;20.79;57.96;102119.81;5034487;28;20061;-62
2021/09/03 07:35:35;;;;;;;7.10;4.18;;;;;;;20.78;58.00;102107.53;5035428;28;20017;-66
2021/09/03 07:38:01;;;;;;;7.97;4.60;;;;;;;20.82;57.64;102119.59;5034582;28;20052;-65
2021/09/03 07:40:27;;;;;;;8.20;4.72;;;;;;;20.84;57.88;102119.50;5035656;28;20022;-63
2021/09/03 07:42:53;;;;;;;6.45;3.90;;;;;;;20.86;57.96;102122.88;5035010;28;20017;-63
2021/09/03 07:45:18;;;;;;;8.10;4.00;;;;;;;20.86;57.90;102120.22;5034722;28;20160;-63
2021/09/03 07:47:44;;;;;;;7.75;3.97;;;;;;;20.88;57.79;102115.66;5035307;28;20033;-63
2021/09/03 07:50:10;;;;;;;8.50;3.90;;;;;;;20.89;57.79;102120.00;5035025;28;20029;-62
2021/09/03 07:52:35;;;;;;;7.78;4.53;;;;;;;20.93;58.05;102123.25;5034452;28;20017;-65
2021/09/03 07:55:00;;;;;;;7.40;3.90;;;;;;;20.91;58.05;102118.06;5034602;28;20117;-64
2021/09/03 07:57:25;;;;;;;6.87;4.40;;;;;;;20.92;58.17;102117.13;5035098;28;20091;-64
2021/09/03 07:59:51;;;;;;;8.30;4.13;;;;;;;20.95;58.25;102119.56;5034000;28;20627;-66
2021/09/03 08:02:16;;;;;;;5.93;4.10;;;;;;;20.97;58.01;102116.78;5035577;28;20271;-64
2021/09/03 08:04:41;;;;;;;6.87;4.10;;;;;;;20.96;57.89;102107.13;5034776;28;20017;-63
2021/09/03 08:07:06;;;;;;;6.90;3.97;;;;;;;21.00;57.98;102105.97;5034025;28;20354;-64
2021/09/03 08:09:32;;;;;;;6.55;4.30;;;;;;;20.99;57.94;102105.09;5035089;28;20108;-67
2021/09/03 08:11:57;;;;;;;8.57;4.22;;;;;;;21.00;57.90;102101.50;5034579;28;20436;-66
2021/09/03 08:14:22;;;;;;;7.70;4.35;;;;;;;21.02;57.91;102099.56;5034041;28;20442;-64
2021/09/03 08:16:48;;;;;;;5.85;4.18;;;;;;;21.01;57.97;102095.25;5034341;28;20026;-63
2021/09/03 08:19:13;;;;;;;6.55;4.18;;;;;;;21.04;58.10;102102.09;5034748;28;20029;-64
2021/09/03 08:21:41;;;;;;;7.43;4.25;;;;;;;21.06;57.88;102104.66;5033917;28;20437;-64
2021/09/03 08:24:07;;;;;;;6.63;4.22;;;;;;;21.04;57.90;102101.28;5034369;28;20125;-66
2021/09/03 08:26:32;;;;;;;10.10;4.80;;;;;;;21.05;57.90;102103.81;5034598;28;20489;-64
2021/09/03 08:28:57;;;;;;;7.10;4.38;;;;;;;21.05;58.09;102102.97;5033306;28;20025;-66
2021/09/03 08:31:23;;;;;;;6.15;4.18;;;;;;;21.06;58.08;102102.00;5034411;28;20083;-64
2021/09/03 08:33:49;;;;;;;8.00;4.50;;;;;;;21.06;57.80;102094.03;5034246;28;20116;-65
2021/09/03 08:36:15;;;;;;;8.13;4.10;;;;;;;21.05;57.93;102090.56;5033489;28;20097;-64
2021/09/03 08:38:40;;;;;;;7.30;4.45;;;;;;;21.08;57.86;102094.78;5034209;28;20025;-65
2021/09/03 08:41:06;;;;;;;6.38;4.20;;;;;;;21.06;58.02;102091.41;5033703;28;20029;-64
2021/09/03 08:43:34;;;;;;;7.35;4.07;;;;;;;21.06;58.12;102091.41;5033266;28;20554;-64
2021/09/03 08:45:59;;;;;;;9.05;4.43;;;;;;;21.08;57.98;102100.94;5033605;28;20430;-61
2021/09/03 08:48:25;;;;;;;7.47;4.43;;;;;;;21.08;58.09;102097.41;5040761;28;20071;-64
2021/09/03 08:50:53;;;;;;;5.63;3.90;;;;;;;21.09;58.04;102101.78;5046812;28;20060;-64
2021/09/03 08:53:21;;;;;;;6.78;4.75;;;;;;;21.08;58.21;102103.59;5039200;28;20084;-64
2021/09/03 08:55:51;;;;;;;7.30;4.43;;;;;;;21.07;57.98;102104.53;5039426;28;20022;-64
2021/09/03 08:58:17;;;;;;;7.20;4.72;;;;;;;21.09;58.18;102109.72;5035951;28;20018;-64
2021/09/03 09:00:44;;;;;;;7.15;4.22;;;;;;;21.09;58.11;102102.59;5051849;28;20029;-62
2021/09/03 09:03:14;;;;;;;7.93;4.90;;;;;;;21.10;58.14;102111.44;5051453;28;20088;-65
2021/09/03 09:05:54;;;;;;;5.95;4.25;;;;;;;21.10;58.29;102106.97;5052923;28;20025;-62
2021/09/03 09:08:25;;;;;;;7.10;4.18;;;;;;;21.06;58.05;102104.66;5049995;28;20045;-61
2021/09/03 09:10:57;;;;;;;8.20;4.25;;;;;;;21.10;58.29;102109.63;5050591;28;20056;-62
2021/09/03 09:13:26;;;;;;;9.43;4.47;;;;;;;21.10;58.06;102114.91;5051252;28;20021;-61
2021/09/03 09:16:10;;;;;;;7.97;4.35;;;;;;;21.11;58.35;102106.00;5042975;28;20029;-60
2021/09/03 09:18:43;;;;;;;6.07;3.78;;;;;;;21.13;58.27;102103.25;5034505;28;20369;-63
2021/09/03 09:21:18;;;;;;;7.47;4.25;;;;;;;21.13;58.23;102104.09;5034701;28;20026;-62
2021/09/03 09:23:52;;;;;;;6.75;4.45;;;;;;;21.13;58.32;102108.56;5033171;28;20120;-62
2021/09/03 09:26:24;;;;;;;7.95;4.35;;;;;;;21.15;58.13;102098.66;5033794;28;20048;-62
2021/09/03 09:28:51;;;;;;;6.28;4.00;;;;;;;21.11;58.24;102097.19;5033568;28;20030;-62
2021/09/03 09:31:34;;;;;;;7.18;4.38;;;;;;;21.13;57.91;102097.94;5032273;28;20033;-61
2021/09/03 09:34:11;;;;;;;7.37;4.67;;;;;;;21.12;58.23;102093.59;5032509;28;20595;-61
2021/09/03 09:36:38;;;;;;;8.23;4.47;;;;;;;21.12;58.30;102094.44;5033661;28;20025;-65
2021/09/03 09:39:03;;;;;;;7.43;4.47;;;;;;;21.12;58.21;102096.25;5032339;28;20017;-60
2021/09/03 09:41:31;;;;;;;7.43;4.13;;;;;;;21.11;57.87;102098.06;5033409;28;20025;-64
2021/09/03 09:43:58;;;;;;;7.60;4.43;;;;;;;21.13;58.30;102090.84;5033156;28;20040;-65
2021/09/03 09:46:26;;;;;;;7.72;4.68;;;;;;;21.13;58.41;102092.66;5032644;28;20037;-67
2021/09/03 09:48:51;;;;;;;5.97;3.97;;;;;;;21.16;58.23;102087.13;5032926;28;20029;-66
2021/09/03 09:51:41;;;;;;;6.57;3.83;;;;;;;21.12;58.25;102081.19;5033685;28;20389;-66
2021/09/03 09:54:09;;;;;;;5.97;4.20;;;;;;;21.17;58.06;102084.34;5024161;28;20053;-66
2021/09/03 09:56:37;;;;;;;6.53;4.25;;;;;;;21.17;58.11;102084.34;5033596;28;20053;-65
2021/09/03 09:59:06;;;;;;;8.85;4.13;;;;;;;21.16;57.98;102074.69;5031888;28;20454;-67
2021/09/03 10:01:34;;;;;;;7.22;4.18;;;;;;;21.20;58.18;102078.81;5032827;28;20021;-66
2021/09/03 10:04:03;;;;;;;7.82;4.43;;;;;;;21.19;58.00;102079.78;5032692;28;20030;-66
2021/09/03 10:06:30;;;;;;;6.43;4.10;;;;;;;21.22;57.77;102080.50;5032429;28;20148;-65
2021/09/03 10:08:58;;;;;;;6.57;4.22;;;;;;;21.22;57.81;102077.84;5032145;28;20029;-66
2021/09/03 10:11:24;;;;;;;5.57;3.95;;;;;;;21.23;58.24;102076.91;5033045;28;20016;-65
2021/09/03 10:13:50;;;;;;;7.03;3.90;;;;;;;21.22;58.11;102070.75;5032143;28;20159;-64
2021/09/03 10:16:16;;;;;;;8.43;4.50;;;;;;;21.23;58.08;102068.94;5033114;28;20438;-67
2021/09/03 10:18:48;;;;;;;7.30;4.10;;;;;;;21.22;58.13;102068.09;5033319;28;20071;-64
2021/09/03 10:21:14;;;;;;;7.38;4.03;;;;;;;21.22;57.98;102064.59;5031941;28;20351;-62
2021/09/03 10:24:02;;;;;;;10.40;4.30;;;;;;;21.25;57.92;102062.53;5033200;28;20442;-62
2021/09/03 10:26:47;;;;;;;7.57;4.10;;;;;;;21.25;58.01;102059.06;5032512;28;20108;-63
2021/09/03 10:29:29;;;;;;;8.60;4.15;;;;;;;21.24;57.85;102055.56;5032300;28;20025;-60
2021/09/03 10:32:03;;;;;;;9.82;5.60;;;;;;;21.24;57.79;102054.69;5031768;28;20059;-61
2021/09/03 10:34:40;;;;;;;7.82;5.10;;;;;;;21.23;57.93;102051.22;5031408;28;20425;-63
2021/09/03 10:37:12;;;;;;;9.95;5.03;;;;;;;21.26;57.75;102055.44;5032216;28;20029;-62
2021/09/03 10:40:06;;;;;;;9.27;4.93;;;;;;;21.25;57.80;102051.94;5032862;28;20033;-68
2021/09/03 10:42:48;;;;;;;8.50;4.75;;;;;;;21.24;57.96;102047.63;5030103;28;20444;-63
2021/09/03 10:45:26;;;;;;;7.32;4.63;;;;;;;21.25;57.94;102043.16;5032259;28;20029;-62
2021/09/03 10:47:55;;;;;;;7.90;4.70;;;;;;;21.24;57.90;102044.09;5031935;28;20040;-65
2021/09/03 10:50:31;;;;;;;8.73;4.90;;;;;;;21.24;57.92;102041.44;5031790;28;20064;-65
2021/09/03 10:53:06;;;;;;;8.38;4.40;;;;;;;21.24;57.99;102037.00;5031551;28;20033;-65
2021/09/03 10:55:52;;;;;;;9.10;4.68;;;;;;;21.24;57.79;102034.34;5031173;28;20406;-65
2021/09/03 10:58:38;;;;;;;9.98;4.75;;;;;;;21.23;57.81;102027.34;5031988;28;20455;-66
2021/09/03 11:01:13;;;;;;;7.57;4.93;;;;;;;21.25;57.74;102027.25;5031543;28;20500;-68
2021/09/03 11:03:44;;;;;;;7.93;4.93;;;;;;;21.24;57.95;102018.44;5031250;28;20040;-63
2021/09/03 11:06:13;;;;;;;6.97;4.38;;;;;;;21.25;58.02;102021.94;5031507;28;20031;-63
2021/09/03 11:08:44;;;;;;;7.47;4.35;;;;;;;21.26;57.80;102008.56;5032110;28;20017;-61
2021/09/03 11:11:36;;;;;;;8.65;4.85;;;;;;;21.28;57.63;102003.97;5030855;28;20029;-61
2021/09/03 11:14:08;;;;;;;8.95;4.97;;;;;;;21.31;57.39;102006.41;5031529;28;20030;-61
2021/09/03 11:16:35;;;;;;;7.38;4.85;;;;;;;21.33;57.35;101998.34;5030969;28;20100;-59
2021/09/03 11:19:08;;;;;;;9.25;5.38;;;;;;;21.34;57.23;101994.72;5031620;28;20038;-60
2021/09/03 11:21:40;;;;;;;9.73;7.00;;;;;;;21.35;56.22;101991.97;5034804;28;20018;-64
2021/09/03 11:24:07;;;;;;;10.57;7.53;;;;;;;21.37;55.66;101997.16;5034225;28;20358;-62